Time;durP1;ratioP1;P1;durP2;ratioP2;P2;SDS_P1;SDS_P2;PMS_P1;PMS_P2;Temp;Humidity;BMP_temperature;BMP_pressure;BME280_temperature;BME280_humidity;BME280_pressure;Samples;Min_cycle;Max_cycle;Signal;HPM_P1;HPM_P2
2021/10/22 00:01:31;;;;;;;8.75;2.85;;;;;;;;;;5039426;28;20404;-42
2021/10/22 00:03:57;;;;;;;4.72;2.78;;;;;;;;;;5040671;28;20032;-43
2021/10/22 00:06:22;;;;;;;12.55;3.22;;;;;;;;;;5037144;28;20638;-42
2021/10/22 00:08:47;;;;;;;9.32;3.42;;;;;;;;;;5037059;28;20041;-47
2021/10/22 00:11:13;;;;;;;13.45;4.43;;;;;;;;;;5038391;28;20020;-40
2021/10/22 00:13:38;;;;;;;10.18;3.47;;;;;;;;;;5039140;28;20674;-44
2021/10/22 00:16:04;;;;;;;7.22;3.38;;;;;;;;;;5039199;28;20025;-41
2021/10/22 00:18:31;;;;;;;23.08;5.18;;;;;;;;;;5039570;28;20025;-41
2021/10/22 00:20:56;;;;;;;3.72;2.33;;;;;;;;;;5039429;28;20036;-43
2021/10/22 00:23:21;;;;;;;6.97;2.90;;;;;;;;;;5039847;28;20020;-41
2021/10/22 00:25:47;;;;;;;18.90;4.05;;;;;;;;;;5038563;28;20053;-42
2021/10/22 00:28:12;;;;;;;8.77;3.58;;;;;;;;;;5038151;28;20415;-40
2021/10/22 00:30:38;;;;;;;12.00;5.72;;;;;;;;;;5039979;28;20021;-41
2021/10/22 00:33:03;;;;;;;18.73;4.07;;;;;;;;;;5037441;28;20044;-44
2021/10/22 00:35:28;;;;;;;6.28;3.03;;;;;;;;;;5037338;28;20096;-44
2021/10/22 00:37:53;;;;;;;19.25;5.20;;;;;;;;;;5040188;28;20019;-42
2021/10/22 00:40:21;;;;;;;7.47;2.28;;;;;;;;;;5038931;28;20021;-43
2021/10/22 00:42:46;;;;;;;10.40;3.35;;;;;;;;;;5038170;28;20102;-42
2021/10/22 00:45:12;;;;;;;9.98;4.00;;;;;;;;;;5038148;28;20465;-41
2021/10/22 00:47:37;;;;;;;4.05;2.55;;;;;;;;;;5037437;28;20082;-44
2021/10/22 00:50:03;;;;;;;6.28;3.05;;;;;;;;;;5039392;28;20477;-41
2021/10/22 00:52:29;;;;;;;4.60;2.28;;;;;;;;;;5040417;28;20024;-41
2021/10/22 00:54:57;;;;;;;3.80;2.10;;;;;;;;;;5035410;28;20060;-42
2021/10/22 00:57:22;;;;;;;7.80;3.35;;;;;;;;;;5039274;28;20381;-40
2021/10/22 00:59:47;;;;;;;4.13;2.65;;;;;;;;;;5036178;28;20009;-40
2021/10/22 01:02:13;;;;;;;8.88;4.35;;;;;;;;;;5036630;28;20025;-42
2021/10/22 01:04:39;;;;;;;8.57;3.65;;;;;;;;;;5039458;28;20075;-43
2021/10/22 01:07:06;;;;;;;17.50;3.47;;;;;;;;;;5035776;28;20029;-41
2021/10/22 01:09:31;;;;;;;11.27;3.72;;;;;;;;;;5037248;28;20108;-41
2021/10/22 01:11:56;;;;;;;19.75;4.15;;;;;;;;;;5038549;28;20112;-41
2021/10/22 01:14:22;;;;;;;6.78;3.80;;;;;;;;;;5038666;28;20045;-43
2021/10/22 01:16:47;;;;;;;11.80;4.22;;;;;;;;;;5033569;28;20147;-42
2021/10/22 01:19:14;;;;;;;16.98;3.17;;;;;;;;;;5039437;28;20028;-43
2021/10/22 01:21:39;;;;;;;22.92;3.88;;;;;;;;;;5040541;28;20052;-45
2021/10/22 01:24:04;;;;;;;8.90;3.45;;;;;;;;;;5036128;28;20197;-41
2021/10/22 01:26:30;;;;;;;3.90;1.73;;;;;;;;;;5036729;28;20597;-42
2021/10/22 01:28:56;;;;;;;4.10;2.25;;;;;;;;;;5035451;28;20485;-41
2021/10/22 01:31:22;;;;;;;9.68;3.67;;;;;;;;;;5035710;28;20041;-41
2021/10/22 01:33:49;;;;;;;7.63;3.70;;;;;;;;;;5035216;28;20106;-46
2021/10/22 01:36:15;;;;;;;16.38;3.92;;;;;;;;;;5037866;28;20037;-47
2021/10/22 01:38:40;;;;;;;15.93;3.38;;;;;;;;;;5033189;28;20021;-46
2021/10/22 01:41:06;;;;;;;11.27;2.47;;;;;;;;;;5037892;28;20152;-45
2021/10/22 01:43:32;;;;;;;5.22;2.58;;;;;;;;;;5038546;28;20032;-47
2021/10/22 01:45:57;;;;;;;10.07;3.88;;;;;;;;;;5032997;28;20045;-46
2021/10/22 01:48:22;;;;;;;8.60;4.47;;;;;;;;;;5038322;28;20441;-46
2021/10/22 01:50:48;;;;;;;3.03;2.25;;;;;;;;;;5036056;28;20507;-43
2021/10/22 01:53:14;;;;;;;6.15;3.47;;;;;;;;;;5039415;28;20574;-45
2021/10/22 01:55:40;;;;;;;11.88;3.65;;;;;;;;;;5035779;28;20383;-43
2021/10/22 01:58:05;;;;;;;5.13;3.60;;;;;;;;;;5035644;28;20473;-43
2021/10/22 02:00:31;;;;;;;10.38;3.13;;;;;;;;;;5037144;28;20029;-46
2021/10/22 02:02:56;;;;;;;5.15;2.92;;;;;;;;;;5038898;28;20024;-44
2021/10/22 02:05:22;;;;;;;6.28;2.80;;;;;;;;;;5034283;28;20033;-46
2021/10/22 02:07:47;;;;;;;7.18;2.08;;;;;;;;;;5035945;28;20377;-43
2021/10/22 02:10:12;;;;;;;7.78;3.03;;;;;;;;;;5034018;28;20052;-46
2021/10/22 02:12:38;;;;;;;8.27;2.63;;;;;;;;;;5037658;28;20502;-48
2021/10/22 02:15:04;;;;;;;9.70;2.97;;;;;;;;;;5035390;28;20018;-44
2021/10/22 02:17:29;;;;;;;6.25;2.63;;;;;;;;;;5038252;28;20029;-42
2021/10/22 02:19:55;;;;;;;5.00;3.03;;;;;;;;;;5033173;28;20474;-47
2021/10/22 02:22:20;;;;;;;3.17;2.47;;;;;;;;;;5034842;28;20020;-44
2021/10/22 02:24:45;;;;;;;6.80;2.38;;;;;;;;;;5038041;28;20029;-45
2021/10/22 02:27:10;;;;;;;5.15;1.58;;;;;;;;;;5035794;28;20052;-43
2021/10/22 02:29:36;;;;;;;7.65;2.60;;;;;;;;;;5036095;28;20420;-43
2021/10/22 02:32:01;;;;;;;7.78;2.88;;;;;;;;;;5033485;28;20430;-44
2021/10/22 02:34:26;;;;;;;10.25;3.00;;;;;;;;;;5032040;28;20017;-45
2021/10/22 02:36:52;;;;;;;10.73;3.10;;;;;;;;;;5038938;28;20025;-41
2021/10/22 02:39:17;;;;;;;7.95;3.35;;;;;;;;;;5034133;28;20026;-45
2021/10/22 02:41:44;;;;;;;12.85;4.45;;;;;;;;;;5034214;28;20746;-45
2021/10/22 02:44:10;;;;;;;4.10;2.17;;;;;;;;;;5036370;28;20053;-42
2021/10/22 02:46:36;;;;;;;12.88;2.42;;;;;;;;;;5034002;28;20380;-41
2021/10/22 02:49:01;;;;;;;14.90;4.07;;;;;;;;;;5036557;28;20079;-42
2021/10/22 02:51:26;;;;;;;4.20;1.27;;;;;;;;;;5035144;28;20021;-43
2021/10/22 02:53:52;;;;;;;6.63;3.17;;;;;;;;;;5035479;28;20535;-42
2021/10/22 02:56:17;;;;;;;17.40;5.25;;;;;;;;;;5038697;28;20021;-46
2021/10/22 02:58:42;;;;;;;8.73;3.25;;;;;;;;;;5037096;28;20085;-45
2021/10/22 03:01:08;;;;;;;3.28;1.65;;;;;;;;;;5037624;28;20051;-44
2021/10/22 03:03:33;;;;;;;2.42;1.25;;;;;;;;;;5034982;28;20075;-43
2021/10/22 03:05:59;;;;;;;8.25;2.40;;;;;;;;;;5033537;28;20026;-44
2021/10/22 03:08:24;;;;;;;14.48;3.20;;;;;;;;;;5036612;28;20083;-42
2021/10/22 03:10:49;;;;;;;13.32;3.85;;;;;;;;;;5038677;28;20079;-41
2021/10/22 03:13:15;;;;;;;14.10;3.33;;;;;;;;;;5034056;28;20044;-41
2021/10/22 03:15:40;;;;;;;12.75;4.88;;;;;;;;;;5036376;28;20086;-42
2021/10/22 03:18:06;;;;;;;13.80;2.63;;;;;;;;;;5037242;28;20388;-42
2021/10/22 03:20:31;;;;;;;8.18;3.33;;;;;;;;;;5037401;28;20071;-41
2021/10/22 03:22:56;;;;;;;8.20;3.00;;;;;;;;;;5037410;28;20021;-45
2021/10/22 03:25:21;;;;;;;15.10;3.67;;;;;;;;;;5038559;28;20112;-46
2021/10/22 03:27:48;;;;;;;16.70;3.83;;;;;;;;;;5037380;28;20530;-43
2021/10/22 03:30:13;;;;;;;3.92;2.20;;;;;;;;;;5033680;28;20097;-42
2021/10/22 03:32:39;;;;;;;4.28;1.95;;;;;;;;;;5036341;28;20056;-41
2021/10/22 03:35:05;;;;;;;5.30;2.85;;;;;;;;;;5033399;28;20637;-43
2021/10/22 03:37:30;;;;;;;5.32;3.30;;;;;;;;;;5035438;28;20029;-46
2021/10/22 03:39:55;;;;;;;8.77;2.42;;;;;;;;;;5036230;28;20013;-44
2021/10/22 03:42:21;;;;;;;4.63;2.13;;;;;;;;;;5035331;28;20025;-42
2021/10/22 03:44:46;;;;;;;16.20;2.55;;;;;;;;;;5033632;28;20126;-42
2021/10/22 03:47:12;;;;;;;5.07;2.20;;;;;;;;;;5035356;28;20033;-44
2021/10/22 03:49:37;;;;;;;4.57;2.08;;;;;;;;;;5035813;28;20017;-43
2021/10/22 03:52:03;;;;;;;3.88;2.38;;;;;;;;;;5036050;28;20480;-42
2021/10/22 03:54:28;;;;;;;7.72;3.33;;;;;;;;;;5038356;28;20819;-43
2021/10/22 03:56:53;;;;;;;11.57;3.67;;;;;;;;;;5037539;28;20031;-43
2021/10/22 03:59:19;;;;;;;9.90;2.28;;;;;;;;;;5036244;28;20049;-43
2021/10/22 04:01:45;;;;;;;10.57;2.67;;;;;;;;;;5033905;28;20033;-44
2021/10/22 04:04:11;;;;;;;12.38;2.95;;;;;;;;;;5033327;28;20025;-41
2021/10/22 04:06:36;;;;;;;16.63;2.80;;;;;;;;;;5035124;28;20376;-42
2021/10/22 04:09:01;;;;;;;19.50;4.00;;;;;;;;;;5034427;28;20082;-41
2021/10/22 04:11:27;;;;;;;7.57;2.83;;;;;;;;;;5036091;28;20020;-44
2021/10/22 04:13:52;;;;;;;5.40;2.85;;;;;;;;;;5038127;28;20021;-44
2021/10/22 04:16:18;;;;;;;11.43;3.28;;;;;;;;;;5039568;28;20392;-43
2021/10/22 04:18:43;;;;;;;6.20;2.78;;;;;;;;;;5038075;28;20104;-46
2021/10/22 04:21:09;;;;;;;7.82;3.45;;;;;;;;;;5040072;28;20458;-40
2021/10/22 04:23:35;;;;;;;7.50;2.63;;;;;;;;;;5037140;28;20059;-43
2021/10/22 04:26:00;;;;;;;6.32;2.88;;;;;;;;;;5037984;28;20480;-43
2021/10/22 04:28:26;;;;;;;10.43;2.28;;;;;;;;;;5038942;28;20029;-45
2021/10/22 04:30:51;;;;;;;11.25;4.10;;;;;;;;;;5034536;28;20051;-43
2021/10/22 04:33:16;;;;;;;16.08;3.53;;;;;;;;;;5037549;28;20187;-44
2021/10/22 04:35:42;;;;;;;7.13;3.50;;;;;;;;;;5038630;28;20023;-41
2021/10/22 04:40:45;;;;;;;7.35;4.18;;;;;;;;;;5036544;28;20114;-43
2021/10/22 04:43:15;;;;;;;25.58;3.67;;;;;;;;;;5035613;28;20033;-43
2021/10/22 04:45:41;;;;;;;6.55;3.22;;;;;;;;;;5038319;28;20041;-41
2021/10/22 04:48:08;;;;;;;2.38;2.05;;;;;;;;;;5038649;28;20029;-41
2021/10/22 04:50:39;;;;;;;10.35;3.60;;;;;;;;;;5038291;28;20952;-43
2021/10/22 04:53:04;;;;;;;4.68;3.20;;;;;;;;;;5039491;28;20092;-43
2021/10/22 04:55:31;;;;;;;9.65;4.55;;;;;;;;;;5034700;28;20121;-44
2021/10/22 04:57:56;;;;;;;5.82;2.35;;;;;;;;;;5037195;28;20117;-41
2021/10/22 05:00:22;;;;;;;5.38;2.35;;;;;;;;;;5033796;28;20108;-41
2021/10/22 05:02:48;;;;;;;5.00;2.35;;;;;;;;;;5038826;28;20033;-42
2021/10/22 05:05:13;;;;;;;9.98;3.33;;;;;;;;;;5037185;28;20022;-41
2021/10/22 05:07:39;;;;;;;4.40;1.85;;;;;;;;;;5036351;28;20381;-41
2021/10/22 05:10:04;;;;;;;12.25;3.10;;;;;;;;;;5040753;28;20051;-41
2021/10/22 05:12:30;;;;;;;5.20;2.45;;;;;;;;;;5041028;28;20083;-42
2021/10/22 05:14:55;;;;;;;4.55;2.53;;;;;;;;;;5036298;28;20033;-45
2021/10/22 05:17:20;;;;;;;8.18;6.32;;;;;;;;;;5036896;28;20025;-43
2021/10/22 05:19:46;;;;;;;9.48;2.80;;;;;;;;;;5037542;28;20017;-43
2021/10/22 05:22:11;;;;;;;5.82;2.65;;;;;;;;;;5036909;28;20592;-49
2021/10/22 05:24:36;;;;;;;13.13;3.05;;;;;;;;;;5036464;28;20071;-43
2021/10/22 05:27:02;;;;;;;9.82;2.70;;;;;;;;;;5037615;28;20052;-44
2021/10/22 05:29:27;;;;;;;12.18;3.42;;;;;;;;;;5039123;28;20358;-48
2021/10/22 05:31:52;;;;;;;8.38;3.35;;;;;;;;;;5035097;28;20103;-43
2021/10/22 05:34:21;;;;;;;17.83;3.00;;;;;;;;;;5034513;28;20029;-42
2021/10/22 05:36:47;;;;;;;5.30;2.53;;;;;;;;;;5036426;28;20045;-42
2021/10/22 05:39:14;;;;;;;8.80;2.03;;;;;;;;;;5036439;28;20532;-43
2021/10/22 05:41:40;;;;;;;3.63;2.58;;;;;;;;;;5037322;28;20218;-45
2021/10/22 05:44:06;;;;;;;15.10;2.33;;;;;;;;;;5033567;28;20650;-43
2021/10/22 05:46:31;;;;;;;14.63;4.07;;;;;;;;;;5035365;28;20597;-47
2021/10/22 05:48:57;;;;;;;7.88;3.58;;;;;;;;;;5037818;28;20535;-45
2021/10/22 05:51:22;;;;;;;10.98;3.60;;;;;;;;;;5037569;28;20440;-44
2021/10/22 05:53:47;;;;;;;8.48;2.55;;;;;;;;;;5037342;28;20485;-42
2021/10/22 05:56:12;;;;;;;14.90;4.50;;;;;;;;;;5034777;28;20021;-43
2021/10/22 05:58:38;;;;;;;16.20;6.30;;;;;;;;;;5037735;28;20138;-42
2021/10/22 06:01:03;;;;;;;4.30;2.55;;;;;;;;;;5035154;28;20380;-43
2021/10/22 06:03:29;;;;;;;10.77;3.38;;;;;;;;;;5037197;28;20159;-44
2021/10/22 06:05:54;;;;;;;12.85;3.53;;;;;;;;;;5035964;28;20033;-41
2021/10/22 06:08:20;;;;;;;17.33;3.55;;;;;;;;;;5035846;28;20122;-42
2021/10/22 06:10:46;;;;;;;13.63;3.15;;;;;;;;;;5035729;28;20025;-43
2021/10/22 06:13:14;;;;;;;14.45;3.80;;;;;;;;;;5038448;28;20049;-49
2021/10/22 06:15:39;;;;;;;9.68;5.97;;;;;;;;;;5038179;28;20107;-42
2021/10/22 06:18:04;;;;;;;8.38;5.25;;;;;;;;;;5036662;28;20447;-43
2021/10/22 06:20:44;;;;;;;11.77;5.40;;;;;;;;;;5035032;28;20639;-47
2021/10/22 06:25:43;;;;;;;5.50;4.32;;;;;;;;;;5035370;28;20026;-49
2021/10/22 06:28:10;;;;;;;7.45;4.63;;;;;;;;;;5035072;28;20017;-46
2021/10/22 06:30:36;;;;;;;14.32;2.80;;;;;;;;;;5033573;28;20033;-46
2021/10/22 06:33:01;;;;;;;12.43;2.75;;;;;;;;;;5034864;28;20014;-47
2021/10/22 06:35:27;;;;;;;3.83;2.35;;;;;;;;;;5039451;28;20249;-55
2021/10/22 06:37:54;;;;;;;3.80;2.00;;;;;;;;;;5033983;28;20033;-50
2021/10/22 06:40:21;;;;;;;5.13;2.47;;;;;;;;;;5032134;28;20034;-49
2021/10/22 06:42:46;;;;;;;4.40;2.75;;;;;;;;;;5035767;28;20055;-50
2021/10/22 06:45:11;;;;;;;6.60;3.33;;;;;;;;;;5035067;28;20037;-53
2021/10/22 06:47:37;;;;;;;6.47;4.22;;;;;;;;;;5035180;28;20542;-53
2021/10/22 06:50:04;;;;;;;8.95;3.90;;;;;;;;;;5035416;28;20040;-48
2021/10/22 06:52:29;;;;;;;43.60;6.65;;;;;;;;;;5038238;28;20025;-51
2021/10/22 06:54:56;;;;;;;19.05;7.22;;;;;;;;;;5032519;28;20940;-48
2021/10/22 06:57:21;;;;;;;9.68;5.80;;;;;;;;;;5035950;28;20022;-50
2021/10/22 06:59:46;;;;;;;13.60;3.05;;;;;;;;;;5033490;28;20055;-48
2021/10/22 07:02:12;;;;;;;4.28;2.85;;;;;;;;;;5036942;28;20052;-47
2021/10/22 07:04:39;;;;;;;10.07;3.30;;;;;;;;;;5037028;28;20072;-46
2021/10/22 07:07:17;;;;;;;21.98;6.95;;;;;;;;;;5032902;28;20431;-45
2021/10/22 07:09:46;;;;;;;4.68;2.70;;;;;;;;;;5035564;28;20437;-47
2021/10/22 07:12:12;;;;;;;7.90;4.57;;;;;;;;;;5037030;28;20494;-45
2021/10/22 07:14:38;;;;;;;19.52;4.55;;;;;;;;;;5034640;28;20025;-48
2021/10/22 07:17:04;;;;;;;5.80;2.92;;;;;;;;;;5036188;28;20017;-49
2021/10/22 07:19:30;;;;;;;23.13;9.43;;;;;;;;;;5038103;28;20025;-47
2021/10/22 07:22:00;;;;;;;15.63;6.70;;;;;;;;;;5034334;28;20487;-47
2021/10/22 07:24:25;;;;;;;5.70;3.08;;;;;;;;;;5032833;28;20305;-49
2021/10/22 07:26:51;;;;;;;8.35;3.05;;;;;;;;;;5034795;28;20488;-48
2021/10/22 07:29:16;;;;;;;5.90;3.20;;;;;;;;;;5036151;28;20032;-47
2021/10/22 07:31:43;;;;;;;6.53;2.63;;;;;;;;;;5031485;28;20503;-48
2021/10/22 07:34:09;;;;;;;7.68;3.42;;;;;;;;;;5027975;28;20080;-48
2021/10/22 07:36:34;;;;;;;7.90;1.48;;;;;;;;;;5029708;28;20021;-47
2021/10/22 07:38:59;;;;;;;3.97;2.28;;;;;;;;;;5031991;28;20028;-44
2021/10/22 07:41:25;;;;;;;6.65;2.42;;;;;;;;;;5032546;28;20015;-44
2021/10/22 07:43:50;;;;;;;8.85;2.47;;;;;;;;;;5032752;28;20026;-49
2021/10/22 07:46:16;;;;;;;8.23;2.05;;;;;;;;;;5036610;28;20017;-49
2021/10/22 07:48:42;;;;;;;9.75;1.55;;;;;;;;;;5035100;28;20029;-49
2021/10/22 07:51:09;;;;;;;7.18;3.20;;;;;;;;;;5040832;28;20428;-45
2021/10/22 07:53:34;;;;;;;10.23;3.35;;;;;;;;;;5039575;28;20025;-45
2021/10/22 07:55:59;;;;;;;25.27;3.50;;;;;;;;;;5038889;28;20078;-46
2021/10/22 07:58:25;;;;;;;5.93;3.17;;;;;;;;;;5040551;28;20021;-48
2021/10/22 08:00:50;;;;;;;15.75;5.45;;;;;;;;;;5039708;28;20120;-46
2021/10/22 08:03:15;;;;;;;11.80;2.35;;;;;;;;;;5036811;28;20021;-47
2021/10/22 08:05:41;;;;;;;10.75;2.53;;;;;;;;;;5036170;28;20024;-47
2021/10/22 08:08:06;;;;;;;5.15;0.98;;;;;;;;;;5035054;28;20646;-51
2021/10/22 08:10:32;;;;;;;7.15;1.73;;;;;;;;;;5036072;28;20022;-51
2021/10/22 08:12:57;;;;;;;9.80;2.30;;;;;;;;;;5037457;28;20021;-48
2021/10/22 08:15:22;;;;;;;2.95;1.48;;;;;;;;;;5036050;28;20018;-51
2021/10/22 08:17:48;;;;;;;9.13;1.13;;;;;;;;;;5038904;28;20040;-49
2021/10/22 08:20:20;;;;;;;7.97;2.67;;;;;;;;;;5039967;28;20028;-54
2021/10/22 08:22:46;;;;;;;14.05;4.53;;;;;;;;;;5037751;28;20033;-56
2021/10/22 08:25:12;;;;;;;11.07;6.85;;;;;;;;;;5037207;28;20040;-54
2021/10/22 08:27:43;;;;;;;4.93;2.30;;;;;;;;;;5038700;28;20033;-51
2021/10/22 08:30:09;;;;;;;;;;;;;;;;;;5041063;28;20112;-49
2021/10/22 08:32:35;;;;;;;3.00;1.75;;;;;;;;;;5035149;28;19920;-56
2021/10/22 08:35:07;;;;;;;12.05;2.22;;;;;;;;;;5038217;28;20032;-58
2021/10/22 08:37:33;;;;;;;6.53;1.80;;;;;;;;;;5038475;28;20017;-50
2021/10/22 08:39:58;;;;;;;10.95;1.58;;;;;;;;;;5037159;28;21329;-49
2021/10/22 08:42:24;;;;;;;11.55;3.03;;;;;;;;;;5036851;28;20027;-50
2021/10/22 08:44:53;;;;;;;6.40;2.20;;;;;;;;;;5040235;28;20293;-50
2021/10/22 08:47:29;;;;;;;8.07;1.85;;;;;;;;;;5036945;28;20029;-48
2021/10/22 08:49:58;;;;;;;6.22;2.47;;;;;;;;;;5037979;28;20111;-47
2021/10/22 08:52:24;;;;;;;5.47;1.73;;;;;;;;;;5037498;28;20477;-45
2021/10/22 08:54:49;;;;;;;4.57;1.48;;;;;;;;;;5036360;28;20095;-48
2021/10/22 08:57:15;;;;;;;7.65;1.05;;;;;;;;;;5042039;28;20341;-47
2021/10/22 08:59:40;;;;;;;10.88;2.95;;;;;;;;;;5034659;28;20044;-45
2021/10/22 09:02:25;;;;;;;14.27;2.25;;;;;;;;;;5033206;28;20496;-49
2021/10/22 09:04:52;;;;;;;12.70;2.40;;;;;;;;;;5035719;28;20283;-53
2021/10/22 09:07:18;;;;;;;6.32;1.77;;;;;;;;;;5033145;28;20060;-47
2021/10/22 09:09:44;;;;;;;12.45;2.60;;;;;;;;;;5032753;28;20644;-49
2021/10/22 09:12:10;;;;;;;14.02;3.20;;;;;;;;;;5035002;28;20028;-49
2021/10/22 09:14:58;;;;;;;6.65;2.63;;;;;;;;;;5031474;28;20430;-47
2021/10/22 09:17:36;;;;;;;4.50;1.88;;;;;;;;;;5037181;28;20048;-45
2021/10/22 09:20:02;;;;;;;22.10;4.97;;;;;;;;;;5033903;28;20090;-46
2021/10/22 09:22:33;;;;;;;5.18;2.25;;;;;;;;;;5034939;28;20029;-51
2021/10/22 09:25:01;;;;;;;6.53;2.63;;;;;;;;;;5032037;28;20391;-47
2021/10/22 09:27:46;;;;;;;8.60;2.53;;;;;;;;;;5035745;28;20064;-49
2021/10/22 09:30:28;;;;;;;3.58;1.38;;;;;;;;;;5034050;28;20112;-51
2021/10/22 09:32:55;;;;;;;3.35;1.17;;;;;;;;;;5033646;28;20033;-48
2021/10/22 09:35:34;;;;;;;7.32;2.28;;;;;;;;;;5032633;28;20056;-47
2021/10/22 09:38:19;;;;;;;4.75;1.88;;;;;;;;;;5033585;28;20520;-47
2021/10/22 09:40:48;;;;;;;6.10;2.90;;;;;;;;;;5032256;28;20266;-48
2021/10/22 09:43:52;;;;;;;14.05;2.92;;;;;;;;;;5033711;28;20026;-50
2021/10/22 09:46:23;;;;;;;13.38;1.83;;;;;;;;;;4990810;28;20054;-50
2021/10/22 09:48:56;;;;;;;4.18;2.08;;;;;;;;;;5027611;28;20087;-50
2021/10/22 09:51:24;;;;;;;5.07;2.45;;;;;;;;;;5034586;28;20039;-51
2021/10/22 09:53:55;;;;;;;3.53;1.77;;;;;;;;;;5033225;28;20060;-50
2021/10/22 09:56:25;;;;;;;8.27;3.00;;;;;;;;;;5031980;28;20192;-51
2021/10/22 09:58:55;;;;;;;7.35;1.52;;;;;;;;;;5032966;28;20029;-45
2021/10/22 10:01:20;;;;;;;7.95;2.03;;;;;;;;;;5032226;28;20067;-48
2021/10/22 10:03:45;;;;;;;6.95;2.58;;;;;;;;;;5028549;28;20033;-49
2021/10/22 10:06:17;;;;;;;5.07;1.77;;;;;;;;;;5035114;28;20465;-50
2021/10/22 10:08:48;;;;;;;14.77;13.05;;;;;;;;;;5035698;28;20079;-51
2021/10/22 10:11:17;;;;;;;11.95;8.07;;;;;;;;;;5038558;28;20387;-52
2021/10/22 10:13:42;;;;;;;6.65;4.47;;;;;;;;;;5033319;28;20013;-48
2021/10/22 10:16:09;;;;;;;5.82;3.47;;;;;;;;;;5038561;28;20354;-52
2021/10/22 10:18:51;;;;;;;7.70;2.60;;;;;;;;;;5036736;28;20071;-51
2021/10/22 10:21:18;;;;;;;5.93;2.17;;;;;;;;;;5038297;28;20040;-44
2021/10/22 10:23:44;;;;;;;6.32;1.20;;;;;;;;;;5036683;28;20025;-48
2021/10/22 10:26:23;;;;;;;10.88;2.67;;;;;;;;;;5038638;28;20389;-46
2021/10/22 10:28:52;;;;;;;2.22;1.48;;;;;;;;;;5033898;28;20082;-54
2021/10/22 10:31:35;;;;;;;6.85;1.38;;;;;;;;;;5034584;28;20079;-51
2021/10/22 10:34:19;;;;;;;1.90;1.52;;;;;;;;;;5037450;28;20036;-52
2021/10/22 10:36:52;;;;;;;6.03;1.67;;;;;;;;;;5033999;28;20559;-51
2021/10/22 10:39:36;;;;;;;4.15;1.00;;;;;;;;;;5030983;28;20492;-49
2021/10/22 10:42:34;;;;;;;1.60;1.05;;;;;;;;;;5032278;28;20068;-48
2021/10/22 10:45:01;;;;;;;2.42;1.35;;;;;;;;;;5021221;28;20461;-49
2021/10/22 10:47:27;;;;;;;4.30;2.03;;;;;;;;;;5033130;28;20013;-48
2021/10/22 10:49:52;;;;;;;8.15;1.75;;;;;;;;;;5037475;28;20033;-49
2021/10/22 10:52:36;;;;;;;6.57;2.92;;;;;;;;;;5033437;28;20017;-48
2021/10/22 10:55:31;;;;;;;3.85;2.00;;;;;;;;;;5033449;28;20480;-48
2021/10/22 10:57:59;;;;;;;9.25;1.90;;;;;;;;;;5034418;28;20056;-51
2021/10/22 11:00:30;;;;;;;3.00;1.23;;;;;;;;;;5039346;28;20484;-53
2021/10/22 11:03:01;;;;;;;7.68;2.08;;;;;;;;;;5037279;28;20072;-52
2021/10/22 11:05:42;;;;;;;2.72;1.65;;;;;;;;;;5034340;28;20040;-54
2021/10/22 11:08:30;;;;;;;4.43;1.70;;;;;;;;;;5036217;28;20036;-53
2021/10/22 11:11:08;;;;;;;4.22;1.35;;;;;;;;;;5039942;28;20734;-54
2021/10/22 11:13:42;;;;;;;11.70;6.07;;;;;;;;;;5037305;28;20473;-54
2021/10/22 11:16:20;;;;;;;13.85;7.97;;;;;;;;;;5037396;28;20022;-55
2021/10/22 11:18:48;;;;;;;9.40;3.42;;;;;;;;;;5040919;28;20013;-53
2021/10/22 11:21:14;;;;;;;3.95;1.15;;;;;;;;;;5041678;28;20020;-54
2021/10/22 11:23:39;;;;;;;3.40;1.50;;;;;;;;;;5037908;28;20033;-54
2021/10/22 11:26:05;;;;;;;7.72;2.75;;;;;;;;;;5034320;28;20026;-55
2021/10/22 11:28:30;;;;;;;14.20;5.63;;;;;;;;;;5038349;28;20498;-57
2021/10/22 11:30:56;;;;;;;3.10;2.28;;;;;;;;;;5037920;28;20046;-57
2021/10/22 11:33:24;;;;;;;5.05;2.63;;;;;;;;;;5039840;28;20069;-57
2021/10/22 11:35:50;;;;;;;10.90;3.70;;;;;;;;;;5035767;28;20138;-57
2021/10/22 11:38:23;;;;;;;4.50;1.95;;;;;;;;;;5040616;28;20021;-57
2021/10/22 11:40:48;;;;;;;16.02;3.15;;;;;;;;;;5038927;28;20642;-57
2021/10/22 11:43:13;;;;;;;5.32;1.95;;;;;;;;;;5038035;28;20108;-56
2021/10/22 11:45:40;;;;;;;23.77;4.40;;;;;;;;;;5039684;28;20581;-59
2021/10/22 11:48:06;;;;;;;11.65;1.80;;;;;;;;;;5039140;28;20121;-59
2021/10/22 11:50:32;;;;;;;4.35;2.13;;;;;;;;;;5038254;28;20116;-57
2021/10/22 11:53:09;;;;;;;4.22;1.10;;;;;;;;;;5038029;28;20175;-57
2021/10/22 11:55:34;;;;;;;2.30;1.20;;;;;;;;;;5041586;28;20108;-57
2021/10/22 11:58:04;;;;;;;4.80;1.88;;;;;;;;;;5039997;28;20116;-56
2021/10/22 12:00:30;;;;;;;4.95;0.70;;;;;;;;;;5040027;28;20047;-57
2021/10/22 12:02:55;;;;;;;8.45;1.52;;;;;;;;;;5033994;28;20513;-56
2021/10/22 12:05:21;;;;;;;3.35;1.42;;;;;;;;;;5041029;28;20025;-57
2021/10/22 12:07:47;;;;;;;5.22;1.17;;;;;;;;;;5036673;28;20030;-56
2021/10/22 12:10:14;;;;;;;5.97;2.65;;;;;;;;;;5039406;28;20112;-58
2021/10/22 12:12:46;;;;;;;5.40;2.20;;;;;;;;;;5033259;28;20049;-55
2021/10/22 12:15:16;;;;;;;4.03;1.63;;;;;;;;;;5035540;28;20040;-56
2021/10/22 12:17:42;;;;;;;2.78;1.83;;;;;;;;;;5038530;28;20053;-56
2021/10/22 12:20:08;;;;;;;23.65;15.82;;;;;;;;;;5037407;28;20341;-57
2021/10/22 12:22:35;;;;;;;4.65;1.98;;;;;;;;;;5038753;28;20097;-57
2021/10/22 12:25:03;;;;;;;2.50;0.82;;;;;;;;;;5039787;28;20021;-56
2021/10/22 12:27:29;;;;;;;2.60;1.17;;;;;;;;;;5037390;28;20512;-57
2021/10/22 12:29:55;;;;;;;81.43;73.97;;;;;;;;;;5033573;28;20028;-57
2021/10/22 12:32:26;;;;;;;3.92;1.55;;;;;;;;;;5043066;28;20084;-56
2021/10/22 12:34:54;;;;;;;30.83;2.95;;;;;;;;;;5037175;28;20035;-58
2021/10/22 12:37:29;;;;;;;7.15;2.53;;;;;;;;;;5036695;28;20028;-56
2021/10/22 12:39:55;;;;;;;10.00;2.10;;;;;;;;;;5040060;28;20109;-56
2021/10/22 12:42:26;;;;;;;4.47;2.05;;;;;;;;;;5037413;28;20021;-57
2021/10/22 12:45:11;;;;;;;5.03;2.05;;;;;;;;;;5042155;28;20107;-57
2021/10/22 12:47:40;;;;;;;4.47;1.90;;;;;;;;;;5040265;28;20029;-57
2021/10/22 12:50:05;;;;;;;10.95;2.35;;;;;;;;;;5040149;28;20511;-56
2021/10/22 12:52:31;;;;;;;6.72;2.75;;;;;;;;;;5034936;28;20025;-56
2021/10/22 12:54:57;;;;;;;20.95;4.03;;;;;;;;;;5037833;28;20013;-58
2021/10/22 12:57:24;;;;;;;28.45;5.30;;;;;;;;;;5039464;28;20532;-57
2021/10/22 12:59:49;;;;;;;9.30;1.58;;;;;;;;;;5037785;28;20029;-57
2021/10/22 13:02:28;;;;;;;23.42;3.25;;;;;;;;;;5037838;28;20399;-56
2021/10/22 13:05:12;;;;;;;8.77;1.85;;;;;;;;;;5037982;28;20035;-57
2021/10/22 13:07:56;;;;;;;4.00;1.52;;;;;;;;;;5042149;28;20103;-57
2021/10/22 13:21:07;;;;;;;2.95;1.75;;;;;;;;;;5034400;28;20028;-55
2021/10/22 13:23:33;;;;;;;10.13;2.58;;;;;;;;;;5034151;28;20033;-56
2021/10/22 13:26:00;;;;;;;5.28;1.80;;;;;;;;;;5038825;28;20032;-60
2021/10/22 13:28:31;;;;;;;6.50;2.20;;;;;;;;;;5035667;28;20069;-57
2021/10/22 13:31:03;;;;;;;3.55;2.08;;;;;;;;;;5037638;28;20519;-57
2021/10/22 13:33:29;;;;;;;3.53;1.30;;;;;;;;;;5034356;28;20090;-56
2021/10/22 13:35:59;;;;;;;3.67;1.70;;;;;;;;;;5034580;28;20520;-56
2021/10/22 13:38:25;;;;;;;10.13;2.53;;;;;;;;;;5036136;28;20039;-57
2021/10/22 13:40:50;;;;;;;3.97;2.25;;;;;;;;;;5038275;28;20732;-57
2021/10/22 13:43:16;;;;;;;2.63;1.40;;;;;;;;;;5035305;28;20030;-57
2021/10/22 13:45:43;;;;;;;7.93;1.55;;;;;;;;;;5037331;28;20061;-57
2021/10/22 13:48:08;;;;;;;2.90;1.25;;;;;;;;;;5032656;28;20024;-57
2021/10/22 13:50:34;;;;;;;4.40;2.38;;;;;;;;;;5036150;28;20016;-56
2021/10/22 13:52:59;;;;;;;5.90;2.20;;;;;;;;;;5036223;28;20017;-56
2021/10/22 13:55:24;;;;;;;4.68;1.73;;;;;;;;;;5036049;28;20111;-57
2021/10/22 13:57:50;;;;;;;8.88;1.48;;;;;;;;;;5034777;28;20017;-57
2021/10/22 14:00:16;;;;;;;6.07;1.55;;;;;;;;;;5037378;28;20488;-56
2021/10/22 14:02:41;;;;;;;7.45;2.90;;;;;;;;;;5038731;28;20063;-52
2021/10/22 14:05:07;;;;;;;2.55;1.65;;;;;;;;;;5038917;28;20028;-56
2021/10/22 14:07:32;;;;;;;5.72;2.80;;;;;;;;;;5035474;28;20503;-56
2021/10/22 14:09:57;;;;;;;13.57;2.40;;;;;;;;;;5036413;28;20369;-56
2021/10/22 14:12:38;;;;;;;5.75;1.45;;;;;;;;;;5036536;28;20104;-55
2021/10/22 14:18:14;;;;;;;6.53;1.45;;;;;;;;;;5033008;28;20488;-54
2021/10/22 14:31:09;;;;;;;8.73;3.38;;;;;;;;;;5034534;28;20056;-59
2021/10/22 14:33:36;;;;;;;12.40;1.75;;;;;;;;;;5036983;28;20021;-59
2021/10/22 14:36:02;;;;;;;2.20;0.98;;;;;;;;;;5036347;28;20033;-59
2021/10/22 14:38:27;;;;;;;2.88;1.42;;;;;;;;;;5037823;28;20168;-59
2021/10/22 14:40:55;;;;;;;4.72;2.17;;;;;;;;;;5036510;28;20464;-59
2021/10/22 14:43:28;;;;;;;2.83;1.40;;;;;;;;;;5033837;28;20339;-59
2021/10/22 14:46:08;;;;;;;7.72;1.63;;;;;;;;;;5033264;28;20085;-59
2021/10/22 14:48:35;;;;;;;4.43;1.60;;;;;;;;;;5036276;28;20025;-59
2021/10/22 14:51:06;;;;;;;2.85;1.27;;;;;;;;;;5033028;28;20032;-59
2021/10/22 14:53:42;;;;;;;15.20;1.58;;;;;;;;;;5033142;28;20014;-59
2021/10/22 14:56:07;;;;;;;8.25;2.72;;;;;;;;;;5031781;28;20036;-59
2021/10/22 14:58:32;;;;;;;11.15;3.22;;;;;;;;;;5032745;28;20041;-59
2021/10/22 15:01:00;;;;;;;14.85;3.15;;;;;;;;;;5032195;28;20094;-59
2021/10/22 15:03:25;;;;;;;4.10;2.15;;;;;;;;;;5036351;28;20067;-60
2021/10/22 15:05:50;;;;;;;5.45;2.85;;;;;;;;;;5033598;28;20058;-59
2021/10/22 15:08:16;;;;;;;8.90;2.55;;;;;;;;;;5034970;28;20100;-60
2021/10/22 15:10:42;;;;;;;4.30;2.28;;;;;;;;;;5032673;28;20024;-59